sensor_id;sensor_type;location;lat;lon;timestamp;P1;durP1;ratioP1;P2;durP2;ratioP2
70026;SDS011;57506;50.092;15.804;2022-08-05T00:01:57;6.20;;;4.20;;
70026;SDS011;57506;50.092;15.804;2022-08-05T00:04:23;9.63;;;4.60;;
70026;SDS011;57506;50.092;15.804;2022-08-05T00:06:48;6.60;;;4.53;;
70026;SDS011;57506;50.092;15.804;2022-08-05T00:09:14;13.90;;;4.82;;
70026;SDS011;57506;50.092;15.804;2022-08-05T00:11:39;7.43;;;5.13;;
70026;SDS011;57506;50.092;15.804;2022-08-05T00:14:05;7.85;;;4.10;;
70026;SDS011;57506;50.092;15.804;2022-08-05T00:16:30;10.87;;;3.90;;
70026;SDS011;57506;50.092;15.804;2022-08-05T00:18:56;6.37;;;4.80;;
70026;SDS011;57506;50.092;15.804;2022-08-05T00:21:21;7.75;;;4.68;;
70026;SDS011;57506;50.092;15.804;2022-08-05T00:23:47;9.80;;;4.80;;
70026;SDS011;57506;50.092;15.804;2022-08-05T00:26:13;6.60;;;4.03;;
70026;SDS011;57506;50.092;15.804;2022-08-05T00:28:39;5.85;;;4.57;;
70026;SDS011;57506;50.092;15.804;2022-08-05T00:31:05;7.05;;;4.55;;
70026;SDS011;57506;50.092;15.804;2022-08-05T00:33:32;7.00;;;4.63;;
70026;SDS011;57506;50.092;15.804;2022-08-05T00:35:58;6.77;;;4.70;;
70026;SDS011;57506;50.092;15.804;2022-08-05T00:38:23;9.80;;;4.80;;
70026;SDS011;57506;50.092;15.804;2022-08-05T00:40:50;7.07;;;4.60;;
70026;SDS011;57506;50.092;15.804;2022-08-05T00:43:20;9.85;;;4.78;;
70026;SDS011;57506;50.092;15.804;2022-08-05T00:45:46;8.80;;;4.43;;
70026;SDS011;57506;50.092;15.804;2022-08-05T00:48:16;8.13;;;4.63;;
70026;SDS011;57506;50.092;15.804;2022-08-05T00:50:44;7.75;;;4.45;;
70026;SDS011;57506;50.092;15.804;2022-08-05T00:53:12;7.70;;;4.70;;
70026;SDS011;57506;50.092;15.804;2022-08-05T00:55:40;8.75;;;4.15;;
70026;SDS011;57506;50.092;15.804;2022-08-05T00:58:05;7.80;;;4.68;;
70026;SDS011;57506;50.092;15.804;2022-08-05T01:00:31;7.37;;;4.20;;
70026;SDS011;57506;50.092;15.804;2022-08-05T01:02:57;7.20;;;4.40;;
70026;SDS011;57506;50.092;15.804;2022-08-05T01:05:23;9.88;;;4.55;;
70026;SDS011;57506;50.092;15.804;2022-08-05T01:07:49;5.90;;;4.00;;
70026;SDS011;57506;50.092;15.804;2022-08-05T01:10:15;9.80;;;4.53;;
70026;SDS011;57506;50.092;15.804;2022-08-05T01:12:46;11.43;;;4.73;;
70026;SDS011;57506;50.092;15.804;2022-08-05T01:15:16;6.93;;;4.22;;
70026;SDS011;57506;50.092;15.804;2022-08-05T01:17:51;10.25;;;4.50;;
70026;SDS011;57506;50.092;15.804;2022-08-05T01:20:50;8.35;;;4.78;;
70026;SDS011;57506;50.092;15.804;2022-08-05T01:29:48;6.15;;;4.15;;
70026;SDS011;57506;50.092;15.804;2022-08-05T01:32:00;8.00;;;4.20;;
70026;SDS011;57506;50.092;15.804;2022-08-05T01:34:31;7.07;;;4.18;;
70026;SDS011;57506;50.092;15.804;2022-08-05T01:37:12;6.63;;;4.60;;
70026;SDS011;57506;50.092;15.804;2022-08-05T01:39:43;6.97;;;4.23;;
70026;SDS011;57506;50.092;15.804;2022-08-05T01:42:15;9.52;;;4.47;;
70026;SDS011;57506;50.092;15.804;2022-08-05T01:44:43;7.72;;;4.28;;
70026;SDS011;57506;50.092;15.804;2022-08-05T01:47:12;7.80;;;4.72;;
70026;SDS011;57506;50.092;15.804;2022-08-05T01:49:40;6.80;;;4.25;;
70026;SDS011;57506;50.092;15.804;2022-08-05T01:52:07;6.93;;;4.27;;
70026;SDS011;57506;50.092;15.804;2022-08-05T01:54:36;9.43;;;4.90;;
70026;SDS011;57506;50.092;15.804;2022-08-05T01:57:06;7.13;;;4.53;;
70026;SDS011;57506;50.092;15.804;2022-08-05T01:59:33;8.20;;;4.25;;
70026;SDS011;57506;50.092;15.804;2022-08-05T02:02:00;6.85;;;4.78;;
70026;SDS011;57506;50.092;15.804;2022-08-05T02:04:27;6.80;;;4.60;;
70026;SDS011;57506;50.092;15.804;2022-08-05T02:06:56;7.45;;;4.85;;
70026;SDS011;57506;50.092;15.804;2022-08-05T02:09:23;8.18;;;4.57;;
70026;SDS011;57506;50.092;15.804;2022-08-05T02:14:47;6.70;;;4.40;;
70026;SDS011;57506;50.092;15.804;2022-08-05T02:17:18;7.97;;;4.57;;
70026;SDS011;57506;50.092;15.804;2022-08-05T02:19:54;7.05;;;4.18;;
70026;SDS011;57506;50.092;15.804;2022-08-05T02:22:29;7.05;;;4.32;;
70026;SDS011;57506;50.092;15.804;2022-08-05T02:25:00;6.10;;;4.32;;
70026;SDS011;57506;50.092;15.804;2022-08-05T02:27:29;8.03;;;3.87;;
70026;SDS011;57506;50.092;15.804;2022-08-05T02:29:58;9.18;;;4.55;;
70026;SDS011;57506;50.092;15.804;2022-08-05T02:32:26;8.05;;;4.50;;
70026;SDS011;57506;50.092;15.804;2022-08-05T02:34:55;8.00;;;4.20;;
70026;SDS011;57506;50.092;15.804;2022-08-05T02:37:27;7.57;;;4.50;;
70026;SDS011;57506;50.092;15.804;2022-08-05T02:39:56;8.10;;;4.77;;
70026;SDS011;57506;50.092;15.804;2022-08-05T02:42:22;6.60;;;4.60;;
70026;SDS011;57506;50.092;15.804;2022-08-05T02:44:47;7.77;;;5.13;;
70026;SDS011;57506;50.092;15.804;2022-08-05T02:47:14;7.25;;;4.93;;
70026;SDS011;57506;50.092;15.804;2022-08-05T02:49:41;8.95;;;5.15;;
70026;SDS011;57506;50.092;15.804;2022-08-05T02:52:09;8.45;;;4.90;;
70026;SDS011;57506;50.092;15.804;2022-08-05T02:54:37;9.30;;;5.00;;
70026;SDS011;57506;50.092;15.804;2022-08-05T02:57:15;8.77;;;5.60;;
70026;SDS011;57506;50.092;15.804;2022-08-05T02:59:44;8.05;;;5.65;;
70026;SDS011;57506;50.092;15.804;2022-08-05T03:02:11;9.25;;;5.07;;
70026;SDS011;57506;50.092;15.804;2022-08-05T03:04:39;8.05;;;5.60;;
70026;SDS011;57506;50.092;15.804;2022-08-05T03:07:06;9.93;;;5.90;;
70026;SDS011;57506;50.092;15.804;2022-08-05T03:09:34;10.87;;;5.67;;
70026;SDS011;57506;50.092;15.804;2022-08-05T03:12:00;8.60;;;5.75;;
70026;SDS011;57506;50.092;15.804;2022-08-05T03:14:26;9.43;;;5.90;;
70026;SDS011;57506;50.092;15.804;2022-08-05T03:16:51;7.50;;;5.35;;
70026;SDS011;57506;50.092;15.804;2022-08-05T03:19:17;7.63;;;5.43;;
70026;SDS011;57506;50.092;15.804;2022-08-05T03:21:43;7.60;;;5.73;;
70026;SDS011;57506;50.092;15.804;2022-08-05T03:24:09;8.07;;;5.57;;
70026;SDS011;57506;50.092;15.804;2022-08-05T03:26:35;10.10;;;6.22;;
70026;SDS011;57506;50.092;15.804;2022-08-05T03:29:01;10.20;;;6.40;;
70026;SDS011;57506;50.092;15.804;2022-08-05T03:31:27;8.20;;;6.20;;
70026;SDS011;57506;50.092;15.804;2022-08-05T03:33:54;8.00;;;5.72;;
70026;SDS011;57506;50.092;15.804;2022-08-05T03:36:19;8.13;;;5.40;;
70026;SDS011;57506;50.092;15.804;2022-08-05T03:38:45;7.75;;;5.30;;
70026;SDS011;57506;50.092;15.804;2022-08-05T03:41:11;11.03;;;5.83;;
70026;SDS011;57506;50.092;15.804;2022-08-05T03:43:36;9.37;;;5.97;;
70026;SDS011;57506;50.092;15.804;2022-08-05T03:46:02;9.65;;;5.93;;
70026;SDS011;57506;50.092;15.804;2022-08-05T03:48:29;7.00;;;5.53;;
70026;SDS011;57506;50.092;15.804;2022-08-05T03:53:34;8.60;;;6.27;;
70026;SDS011;57506;50.092;15.804;2022-08-05T03:56:08;8.80;;;5.95;;
70026;SDS011;57506;50.092;15.804;2022-08-05T03:58:39;8.27;;;5.60;;
70026;SDS011;57506;50.092;15.804;2022-08-05T04:01:07;10.57;;;5.75;;
70026;SDS011;57506;50.092;15.804;2022-08-05T04:03:34;8.88;;;5.72;;
70026;SDS011;57506;50.092;15.804;2022-08-05T04:06:03;12.53;;;6.40;;
70026;SDS011;57506;50.092;15.804;2022-08-05T04:08:31;7.70;;;6.13;;
70026;SDS011;57506;50.092;15.804;2022-08-05T04:10:57;7.82;;;5.75;;
70026;SDS011;57506;50.092;15.804;2022-08-05T04:13:24;10.93;;;6.85;;
70026;SDS011;57506;50.092;15.804;2022-08-05T04:15:51;10.48;;;7.15;;
70026;SDS011;57506;50.092;15.804;2022-08-05T04:18:16;12.07;;;6.43;;
70026;SDS011;57506;50.092;15.804;2022-08-05T04:20:42;8.82;;;6.93;;
70026;SDS011;57506;50.092;15.804;2022-08-05T04:23:09;11.07;;;6.72;;
70026;SDS011;57506;50.092;15.804;2022-08-05T04:25:35;9.27;;;6.57;;
70026;SDS011;57506;50.092;15.804;2022-08-05T04:28:00;10.17;;;6.60;;
70026;SDS011;57506;50.092;15.804;2022-08-05T04:30:26;11.43;;;7.10;;
70026;SDS011;57506;50.092;15.804;2022-08-05T04:32:52;14.82;;;6.88;;
70026;SDS011;57506;50.092;15.804;2022-08-05T04:35:17;10.30;;;6.50;;
70026;SDS011;57506;50.092;15.804;2022-08-05T04:37:43;7.82;;;6.20;;
70026;SDS011;57506;50.092;15.804;2022-08-05T04:40:09;11.43;;;6.40;;
70026;SDS011;57506;50.092;15.804;2022-08-05T04:42:35;8.57;;;5.90;;
70026;SDS011;57506;50.092;15.804;2022-08-05T04:45:00;9.90;;;6.07;;
70026;SDS011;57506;50.092;15.804;2022-08-05T04:47:26;9.00;;;6.47;;
70026;SDS011;57506;50.092;15.804;2022-08-05T04:49:52;7.70;;;6.17;;
70026;SDS011;57506;50.092;15.804;2022-08-05T04:52:18;12.07;;;5.90;;
70026;SDS011;57506;50.092;15.804;2022-08-05T04:54:43;9.97;;;5.73;;
70026;SDS011;57506;50.092;15.804;2022-08-05T04:57:09;10.90;;;5.03;;
70026;SDS011;57506;50.092;15.804;2022-08-05T04:59:34;8.23;;;4.80;;
70026;SDS011;57506;50.092;15.804;2022-08-05T05:02:00;9.13;;;5.10;;
70026;SDS011;57506;50.092;15.804;2022-08-05T05:04:25;9.63;;;5.15;;
70026;SDS011;57506;50.092;15.804;2022-08-05T05:06:51;13.17;;;5.23;;
70026;SDS011;57506;50.092;15.804;2022-08-05T05:09:16;8.33;;;5.60;;
70026;SDS011;57506;50.092;15.804;2022-08-05T05:11:42;8.95;;;5.28;;
70026;SDS011;57506;50.092;15.804;2022-08-05T05:14:07;9.30;;;5.10;;
70026;SDS011;57506;50.092;15.804;2022-08-05T05:16:33;7.60;;;4.83;;
70026;SDS011;57506;50.092;15.804;2022-08-05T05:18:59;10.48;;;5.15;;
70026;SDS011;57506;50.092;15.804;2022-08-05T05:21:24;13.47;;;5.67;;
70026;SDS011;57506;50.092;15.804;2022-08-05T05:23:50;14.80;;;4.72;;
70026;SDS011;57506;50.092;15.804;2022-08-05T05:26:15;7.33;;;4.73;;
70026;SDS011;57506;50.092;15.804;2022-08-05T05:28:41;13.47;;;4.93;;
70026;SDS011;57506;50.092;15.804;2022-08-05T05:31:06;8.98;;;5.10;;
70026;SDS011;57506;50.092;15.804;2022-08-05T05:33:32;9.83;;;4.67;;
70026;SDS011;57506;50.092;15.804;2022-08-05T05:35:57;9.03;;;4.77;;
70026;SDS011;57506;50.092;15.804;2022-08-05T05:38:23;9.75;;;5.00;;
70026;SDS011;57506;50.092;15.804;2022-08-05T05:40:48;6.53;;;4.27;;
70026;SDS011;57506;50.092;15.804;2022-08-05T05:43:14;9.17;;;4.37;;
70026;SDS011;57506;50.092;15.804;2022-08-05T05:45:40;8.77;;;4.70;;
70026;SDS011;57506;50.092;15.804;2022-08-05T05:48:05;6.10;;;4.17;;
70026;SDS011;57506;50.092;15.804;2022-08-05T05:50:31;11.75;;;4.80;;
70026;SDS011;57506;50.092;15.804;2022-08-05T05:52:57;6.53;;;3.83;;
70026;SDS011;57506;50.092;15.804;2022-08-05T05:55:22;7.53;;;4.50;;
70026;SDS011;57506;50.092;15.804;2022-08-05T05:57:48;8.57;;;4.07;;
70026;SDS011;57506;50.092;15.804;2022-08-05T06:00:15;8.43;;;4.60;;
70026;SDS011;57506;50.092;15.804;2022-08-05T06:02:42;6.50;;;4.47;;
70026;SDS011;57506;50.092;15.804;2022-08-05T06:05:10;9.60;;;4.40;;
70026;SDS011;57506;50.092;15.804;2022-08-05T06:07:37;8.52;;;4.40;;
70026;SDS011;57506;50.092;15.804;2022-08-05T06:10:06;16.55;;;4.82;;
70026;SDS011;57506;50.092;15.804;2022-08-05T06:12:33;9.10;;;4.40;;
70026;SDS011;57506;50.092;15.804;2022-08-05T06:15:00;9.90;;;4.03;;
70026;SDS011;57506;50.092;15.804;2022-08-05T06:17:27;13.27;;;4.30;;
70026;SDS011;57506;50.092;15.804;2022-08-05T06:19:53;7.32;;;4.47;;
70026;SDS011;57506;50.092;15.804;2022-08-05T06:22:22;9.43;;;4.10;;
70026;SDS011;57506;50.092;15.804;2022-08-05T06:24:58;6.47;;;3.97;;
70026;SDS011;57506;50.092;15.804;2022-08-05T06:27:24;8.13;;;4.22;;
70026;SDS011;57506;50.092;15.804;2022-08-05T06:29:50;8.37;;;4.33;;
70026;SDS011;57506;50.092;15.804;2022-08-05T06:32:16;11.30;;;4.05;;
70026;SDS011;57506;50.092;15.804;2022-08-05T06:34:42;15.23;;;4.40;;
70026;SDS011;57506;50.092;15.804;2022-08-05T06:37:08;7.80;;;4.20;;
70026;SDS011;57506;50.092;15.804;2022-08-05T06:39:33;11.23;;;4.33;;
70026;SDS011;57506;50.092;15.804;2022-08-05T06:41:59;11.00;;;4.22;;
70026;SDS011;57506;50.092;15.804;2022-08-05T06:44:26;8.10;;;4.03;;
70026;SDS011;57506;50.092;15.804;2022-08-05T06:46:52;11.20;;;4.30;;
70026;SDS011;57506;50.092;15.804;2022-08-05T06:49:18;9.43;;;4.32;;
70026;SDS011;57506;50.092;15.804;2022-08-05T06:51:43;8.40;;;3.80;;
70026;SDS011;57506;50.092;15.804;2022-08-05T06:54:09;9.13;;;3.93;;
70026;SDS011;57506;50.092;15.804;2022-08-05T06:56:34;10.45;;;4.40;;
70026;SDS011;57506;50.092;15.804;2022-08-05T06:59:00;7.57;;;3.93;;
70026;SDS011;57506;50.092;15.804;2022-08-05T07:01:27;17.35;;;4.07;;
70026;SDS011;57506;50.092;15.804;2022-08-05T07:03:52;7.40;;;4.47;;
70026;SDS011;57506;50.092;15.804;2022-08-05T07:06:18;9.70;;;3.97;;
70026;SDS011;57506;50.092;15.804;2022-08-05T07:08:43;9.50;;;4.07;;
70026;SDS011;57506;50.092;15.804;2022-08-05T07:11:09;9.23;;;3.80;;
70026;SDS011;57506;50.092;15.804;2022-08-05T07:13:36;7.03;;;4.25;;
70026;SDS011;57506;50.092;15.804;2022-08-05T07:16:20;6.93;;;4.07;;
70026;SDS011;57506;50.092;15.804;2022-08-05T07:19:04;8.90;;;4.45;;
70026;SDS011;57506;50.092;15.804;2022-08-05T07:21:30;10.63;;;4.27;;
70026;SDS011;57506;50.092;15.804;2022-08-05T07:23:56;10.63;;;4.10;;
70026;SDS011;57506;50.092;15.804;2022-08-05T07:26:21;7.10;;;3.70;;
70026;SDS011;57506;50.092;15.804;2022-08-05T07:28:47;10.73;;;4.15;;
70026;SDS011;57506;50.092;15.804;2022-08-05T07:31:14;6.67;;;3.60;;
70026;SDS011;57506;50.092;15.804;2022-08-05T07:33:41;8.32;;;3.50;;
70026;SDS011;57506;50.092;15.804;2022-08-05T07:36:06;8.38;;;4.00;;
70026;SDS011;57506;50.092;15.804;2022-08-05T07:38:32;10.13;;;3.60;;
70026;SDS011;57506;50.092;15.804;2022-08-05T07:41:02;11.00;;;3.90;;
70026;SDS011;57506;50.092;15.804;2022-08-05T07:43:28;11.00;;;3.30;;
70026;SDS011;57506;50.092;15.804;2022-08-05T07:45:57;11.20;;;3.83;;
70026;SDS011;57506;50.092;15.804;2022-08-05T07:48:22;10.63;;;3.90;;
70026;SDS011;57506;50.092;15.804;2022-08-05T07:50:49;9.30;;;3.95;;
70026;SDS011;57506;50.092;15.804;2022-08-05T07:53:15;10.40;;;4.37;;
70026;SDS011;57506;50.092;15.804;2022-08-05T07:55:40;12.43;;;3.77;;
70026;SDS011;57506;50.092;15.804;2022-08-05T07:58:06;15.03;;;3.30;;
70026;SDS011;57506;50.092;15.804;2022-08-05T08:00:31;6.63;;;3.93;;
70026;SDS011;57506;50.092;15.804;2022-08-05T08:02:57;6.03;;;3.80;;
70026;SDS011;57506;50.092;15.804;2022-08-05T08:05:22;8.75;;;4.15;;
70026;SDS011;57506;50.092;15.804;2022-08-05T08:07:48;16.27;;;3.90;;
70026;SDS011;57506;50.092;15.804;2022-08-05T08:10:14;7.22;;;3.78;;
70026;SDS011;57506;50.092;15.804;2022-08-05T08:12:40;9.13;;;3.97;;
70026;SDS011;57506;50.092;15.804;2022-08-05T08:15:06;13.65;;;4.07;;
70026;SDS011;57506;50.092;15.804;2022-08-05T08:17:34;9.23;;;4.28;;
70026;SDS011;57506;50.092;15.804;2022-08-05T08:19:59;10.33;;;4.03;;
70026;SDS011;57506;50.092;15.804;2022-08-05T08:22:26;7.07;;;3.97;;
70026;SDS011;57506;50.092;15.804;2022-08-05T08:24:52;12.55;;;4.35;;
70026;SDS011;57506;50.092;15.804;2022-08-05T08:27:17;10.30;;;3.70;;
70026;SDS011;57506;50.092;15.804;2022-08-05T08:29:43;10.57;;;3.88;;
70026;SDS011;57506;50.092;15.804;2022-08-05T08:32:08;10.20;;;4.07;;
70026;SDS011;57506;50.092;15.804;2022-08-05T08:34:34;7.80;;;3.90;;
70026;SDS011;57506;50.092;15.804;2022-08-05T08:37:00;11.35;;;4.05;;
70026;SDS011;57506;50.092;15.804;2022-08-05T08:39:25;9.10;;;3.87;;
70026;SDS011;57506;50.092;15.804;2022-08-05T08:41:51;7.88;;;3.85;;
70026;SDS011;57506;50.092;15.804;2022-08-05T08:44:20;10.50;;;3.78;;
70026;SDS011;57506;50.092;15.804;2022-08-05T08:46:49;6.77;;;3.80;;
70026;SDS011;57506;50.092;15.804;2022-08-05T08:49:16;5.28;;;3.80;;
70026;SDS011;57506;50.092;15.804;2022-08-05T08:51:47;10.40;;;4.20;;
70026;SDS011;57506;50.092;15.804;2022-08-05T08:54:16;9.52;;;3.90;;
70026;SDS011;57506;50.092;15.804;2022-08-05T08:56:41;9.17;;;3.90;;
70026;SDS011;57506;50.092;15.804;2022-08-05T08:59:07;7.20;;;3.40;;
70026;SDS011;57506;50.092;15.804;2022-08-05T09:01:33;8.67;;;3.83;;
70026;SDS011;57506;50.092;15.804;2022-08-05T09:03:59;5.78;;;3.83;;
70026;SDS011;57506;50.092;15.804;2022-08-05T09:06:27;6.32;;;3.90;;
70026;SDS011;57506;50.092;15.804;2022-08-05T09:08:53;7.77;;;3.30;;
70026;SDS011;57506;50.092;15.804;2022-08-05T09:11:20;6.63;;;3.50;;
70026;SDS011;57506;50.092;15.804;2022-08-05T09:13:45;8.02;;;3.20;;
70026;SDS011;57506;50.092;15.804;2022-08-05T09:16:11;7.40;;;3.70;;
70026;SDS011;57506;50.092;15.804;2022-08-05T09:18:37;6.30;;;3.35;;
70026;SDS011;57506;50.092;15.804;2022-08-05T09:21:03;10.77;;;3.65;;
70026;SDS011;57506;50.092;15.804;2022-08-05T09:23:29;5.65;;;3.65;;
70026;SDS011;57506;50.092;15.804;2022-08-05T09:26:06;4.67;;;2.93;;
70026;SDS011;57506;50.092;15.804;2022-08-05T09:28:34;8.75;;;4.22;;
70026;SDS011;57506;50.092;15.804;2022-08-05T09:36:16;9.27;;;3.93;;
70026;SDS011;57506;50.092;15.804;2022-08-05T09:38:58;7.03;;;3.72;;
70026;SDS011;57506;50.092;15.804;2022-08-05T09:41:29;5.35;;;3.63;;
70026;SDS011;57506;50.092;15.804;2022-08-05T09:43:55;6.13;;;3.40;;
70026;SDS011;57506;50.092;15.804;2022-08-05T09:46:25;7.38;;;3.80;;
70026;SDS011;57506;50.092;15.804;2022-08-05T09:48:51;6.57;;;3.30;;
70026;SDS011;57506;50.092;15.804;2022-08-05T09:51:27;6.95;;;3.47;;
70026;SDS011;57506;50.092;15.804;2022-08-05T09:54:06;5.20;;;3.80;;
70026;SDS011;57506;50.092;15.804;2022-08-05T09:56:38;9.38;;;3.70;;
70026;SDS011;57506;50.092;15.804;2022-08-05T09:59:11;6.88;;;4.03;;
70026;SDS011;57506;50.092;15.804;2022-08-05T10:01:40;5.47;;;3.57;;
70026;SDS011;57506;50.092;15.804;2022-08-05T10:04:11;8.23;;;3.47;;
70026;SDS011;57506;50.092;15.804;2022-08-05T10:06:41;5.90;;;3.70;;
70026;SDS011;57506;50.092;15.804;2022-08-05T10:09:18;6.28;;;3.60;;
70026;SDS011;57506;50.092;15.804;2022-08-05T10:11:47;6.20;;;3.90;;
70026;SDS011;57506;50.092;15.804;2022-08-05T10:14:25;5.87;;;3.90;;
70026;SDS011;57506;50.092;15.804;2022-08-05T10:16:52;5.75;;;3.55;;
70026;SDS011;57506;50.092;15.804;2022-08-05T10:19:23;8.32;;;3.67;;
70026;SDS011;57506;50.092;15.804;2022-08-05T10:21:50;8.80;;;3.88;;
70026;SDS011;57506;50.092;15.804;2022-08-05T10:24:19;6.67;;;3.80;;
70026;SDS011;57506;50.092;15.804;2022-08-05T10:26:46;7.63;;;3.63;;
70026;SDS011;57506;50.092;15.804;2022-08-05T10:29:13;4.93;;;3.58;;
70026;SDS011;57506;50.092;15.804;2022-08-05T10:31:38;8.80;;;3.30;;
70026;SDS011;57506;50.092;15.804;2022-08-05T10:34:04;7.60;;;3.25;;
70026;SDS011;57506;50.092;15.804;2022-08-05T10:36:34;5.65;;;3.75;;
70026;SDS011;57506;50.092;15.804;2022-08-05T10:39:24;5.97;;;3.60;;
70026;SDS011;57506;50.092;15.804;2022-08-05T10:41:52;7.50;;;3.90;;
70026;SDS011;57506;50.092;15.804;2022-08-05T10:44:24;9.73;;;3.70;;
70026;SDS011;57506;50.092;15.804;2022-08-05T10:46:54;7.03;;;3.75;;
70026;SDS011;57506;50.092;15.804;2022-08-05T10:49:21;8.27;;;3.72;;
70026;SDS011;57506;50.092;15.804;2022-08-05T10:51:50;6.70;;;3.93;;
70026;SDS011;57506;50.092;15.804;2022-08-05T10:54:44;4.85;;;3.70;;
70026;SDS011;57506;50.092;15.804;2022-08-05T10:57:24;11.75;;;3.60;;
70026;SDS011;57506;50.092;15.804;2022-08-05T11:00:05;6.03;;;3.53;;
70026;SDS011;57506;50.092;15.804;2022-08-05T11:02:32;5.28;;;4.10;;
70026;SDS011;57506;50.092;15.804;2022-08-05T11:04:57;7.30;;;4.10;;
70026;SDS011;57506;50.092;15.804;2022-08-05T11:07:23;8.38;;;3.97;;
70026;SDS011;57506;50.092;15.804;2022-08-05T11:09:49;5.47;;;4.17;;
70026;SDS011;57506;50.092;15.804;2022-08-05T11:17:35;5.30;;;3.50;;
70026;SDS011;57506;50.092;15.804;2022-08-05T11:20:03;5.57;;;3.40;;
70026;SDS011;57506;50.092;15.804;2022-08-05T11:33:24;6.05;;;3.90;;
70026;SDS011;57506;50.092;15.804;2022-08-05T11:35:59;5.40;;;3.90;;
70026;SDS011;57506;50.092;15.804;2022-08-05T11:41:14;7.47;;;4.00;;
70026;SDS011;57506;50.092;15.804;2022-08-05T11:49:12;5.97;;;3.88;;
70026;SDS011;57506;50.092;15.804;2022-08-05T11:51:42;6.97;;;3.50;;
70026;SDS011;57506;50.092;15.804;2022-08-05T11:54:13;7.50;;;4.10;;
70026;SDS011;57506;50.092;15.804;2022-08-05T11:57:02;5.38;;;3.70;;
70026;SDS011;57506;50.092;15.804;2022-08-05T11:59:29;6.38;;;3.55;;
70026;SDS011;57506;50.092;15.804;2022-08-05T12:02:04;5.45;;;3.47;;
70026;SDS011;57506;50.092;15.804;2022-08-05T12:04:41;6.20;;;3.73;;
70026;SDS011;57506;50.092;15.804;2022-08-05T12:07:13;7.43;;;3.50;;
70026;SDS011;57506;50.092;15.804;2022-08-05T12:09:42;5.32;;;4.15;;
70026;SDS011;57506;50.092;15.804;2022-08-05T12:12:12;6.63;;;3.53;;
70026;SDS011;57506;50.092;15.804;2022-08-05T12:14:44;7.20;;;3.25;;
70026;SDS011;57506;50.092;15.804;2022-08-05T12:17:10;4.27;;;2.93;;
70026;SDS011;57506;50.092;15.804;2022-08-05T12:22:13;6.15;;;2.80;;
70026;SDS011;57506;50.092;15.804;2022-08-05T12:24:44;4.10;;;2.70;;
70026;SDS011;57506;50.092;15.804;2022-08-05T12:27:21;4.22;;;2.88;;
70026;SDS011;57506;50.092;15.804;2022-08-05T12:30:00;7.25;;;2.88;;
70026;SDS011;57506;50.092;15.804;2022-08-05T12:32:30;5.40;;;2.70;;
70026;SDS011;57506;50.092;15.804;2022-08-05T12:34:56;4.30;;;3.17;;
70026;SDS011;57506;50.092;15.804;2022-08-05T12:37:22;4.90;;;2.67;;
70026;SDS011;57506;50.092;15.804;2022-08-05T12:39:49;5.85;;;3.10;;
70026;SDS011;57506;50.092;15.804;2022-08-05T12:42:16;5.15;;;2.85;;
70026;SDS011;57506;50.092;15.804;2022-08-05T12:44:43;4.88;;;2.97;;
70026;SDS011;57506;50.092;15.804;2022-08-05T12:47:10;8.07;;;2.93;;
70026;SDS011;57506;50.092;15.804;2022-08-05T12:49:38;9.38;;;3.05;;
70026;SDS011;57506;50.092;15.804;2022-08-05T12:52:11;5.82;;;3.60;;
70026;SDS011;57506;50.092;15.804;2022-08-05T12:54:38;5.70;;;3.15;;
70026;SDS011;57506;50.092;15.804;2022-08-05T12:57:05;4.57;;;3.30;;
70026;SDS011;57506;50.092;15.804;2022-08-05T12:59:53;6.65;;;3.13;;
70026;SDS011;57506;50.092;15.804;2022-08-05T13:02:19;6.43;;;3.00;;
70026;SDS011;57506;50.092;15.804;2022-08-05T13:04:50;5.72;;;2.97;;
70026;SDS011;57506;50.092;15.804;2022-08-05T13:07:18;4.65;;;2.70;;
70026;SDS011;57506;50.092;15.804;2022-08-05T13:09:51;5.23;;;3.20;;
70026;SDS011;57506;50.092;15.804;2022-08-05T13:12:19;6.90;;;2.95;;
70026;SDS011;57506;50.092;15.804;2022-08-05T13:17:22;5.15;;;3.13;;
70026;SDS011;57506;50.092;15.804;2022-08-05T13:22:30;5.13;;;3.40;;
70026;SDS011;57506;50.092;15.804;2022-08-05T13:24:57;6.93;;;3.40;;
70026;SDS011;57506;50.092;15.804;2022-08-05T13:27:24;5.60;;;3.45;;
70026;SDS011;57506;50.092;15.804;2022-08-05T13:29:50;7.95;;;3.28;;
70026;SDS011;57506;50.092;15.804;2022-08-05T13:32:17;7.88;;;3.60;;
70026;SDS011;57506;50.092;15.804;2022-08-05T13:34:42;5.00;;;3.60;;
70026;SDS011;57506;50.092;15.804;2022-08-05T13:37:08;5.65;;;3.63;;
70026;SDS011;57506;50.092;15.804;2022-08-05T13:39:33;9.70;;;3.80;;
70026;SDS011;57506;50.092;15.804;2022-08-05T13:41:59;4.95;;;3.13;;
70026;SDS011;57506;50.092;15.804;2022-08-05T13:44:25;4.83;;;3.53;;
70026;SDS011;57506;50.092;15.804;2022-08-05T13:46:50;5.03;;;3.40;;
70026;SDS011;57506;50.092;15.804;2022-08-05T13:49:16;6.38;;;3.22;;
70026;SDS011;57506;50.092;15.804;2022-08-05T13:51:41;5.07;;;3.10;;
70026;SDS011;57506;50.092;15.804;2022-08-05T13:54:07;4.90;;;3.33;;
70026;SDS011;57506;50.092;15.804;2022-08-05T13:56:33;6.27;;;3.27;;
70026;SDS011;57506;50.092;15.804;2022-08-05T13:58:59;5.63;;;3.50;;
70026;SDS011;57506;50.092;15.804;2022-08-05T14:01:24;8.87;;;3.80;;
70026;SDS011;57506;50.092;15.804;2022-08-05T14:03:50;7.45;;;3.75;;
70026;SDS011;57506;50.092;15.804;2022-08-05T14:06:35;6.77;;;3.57;;
70026;SDS011;57506;50.092;15.804;2022-08-05T14:09:01;5.40;;;3.38;;
70026;SDS011;57506;50.092;15.804;2022-08-05T14:11:27;5.60;;;3.33;;
70026;SDS011;57506;50.092;15.804;2022-08-05T14:13:53;12.63;;;4.07;;
70026;SDS011;57506;50.092;15.804;2022-08-05T14:16:19;5.73;;;3.40;;
70026;SDS011;57506;50.092;15.804;2022-08-05T14:18:44;6.93;;;3.63;;
70026;SDS011;57506;50.092;15.804;2022-08-05T14:21:10;6.67;;;3.30;;
70026;SDS011;57506;50.092;15.804;2022-08-05T14:23:36;5.97;;;4.23;;
70026;SDS011;57506;50.092;15.804;2022-08-05T14:26:01;8.77;;;3.85;;
70026;SDS011;57506;50.092;15.804;2022-08-05T14:28:27;8.73;;;3.80;;
70026;SDS011;57506;50.092;15.804;2022-08-05T14:30:53;4.90;;;3.65;;
70026;SDS011;57506;50.092;15.804;2022-08-05T14:33:19;7.32;;;3.60;;
70026;SDS011;57506;50.092;15.804;2022-08-05T14:35:45;4.70;;;3.50;;
70026;SDS011;57506;50.092;15.804;2022-08-05T14:38:11;5.35;;;4.00;;
70026;SDS011;57506;50.092;15.804;2022-08-05T14:40:36;6.20;;;4.10;;
70026;SDS011;57506;50.092;15.804;2022-08-05T14:43:02;4.90;;;3.47;;
70026;SDS011;57506;50.092;15.804;2022-08-05T14:45:28;6.00;;;3.77;;
70026;SDS011;57506;50.092;15.804;2022-08-05T14:47:53;6.93;;;3.83;;
70026;SDS011;57506;50.092;15.804;2022-08-05T14:50:19;10.40;;;3.88;;
70026;SDS011;57506;50.092;15.804;2022-08-05T14:52:45;7.97;;;3.47;;
70026;SDS011;57506;50.092;15.804;2022-08-05T14:55:11;7.20;;;3.92;;
70026;SDS011;57506;50.092;15.804;2022-08-05T14:57:37;5.95;;;4.00;;
70026;SDS011;57506;50.092;15.804;2022-08-05T15:00:02;8.13;;;3.63;;
70026;SDS011;57506;50.092;15.804;2022-08-05T15:02:29;11.05;;;3.80;;
70026;SDS011;57506;50.092;15.804;2022-08-05T15:04:54;7.93;;;3.47;;
70026;SDS011;57506;50.092;15.804;2022-08-05T15:07:20;7.05;;;3.70;;
70026;SDS011;57506;50.092;15.804;2022-08-05T15:09:45;4.50;;;3.67;;
70026;SDS011;57506;50.092;15.804;2022-08-05T15:12:11;8.07;;;3.70;;
70026;SDS011;57506;50.092;15.804;2022-08-05T15:14:36;5.30;;;3.30;;
70026;SDS011;57506;50.092;15.804;2022-08-05T15:17:03;5.78;;;3.78;;
70026;SDS011;57506;50.092;15.804;2022-08-05T15:19:29;8.30;;;4.33;;
70026;SDS011;57506;50.092;15.804;2022-08-05T15:21:55;8.85;;;3.83;;
70026;SDS011;57506;50.092;15.804;2022-08-05T15:24:20;5.20;;;3.10;;
70026;SDS011;57506;50.092;15.804;2022-08-05T15:26:46;6.88;;;4.15;;